Ingenio Santa Ana, Argentina
Current Conditions -  °F | °C
As of 11:00 AM on Thursday 29 Jan 2015 (Local Time) from SANT Reporting Station
Scattered Clouds Scattered Clouds  
Wind Chill: 24°   Ceiling: Unl
Heat Index: 24°   Visibility: 6mi
Dew Point: 20°   Wind: 5mph
Humidity: 78%   Direction: 180°S
Pressure: 30.12"   Gusts: NA
Location:  27.47°S, 65.68°W
Report Text: SANT 291400Z 18004KT 9999 SCT030 SCT03524/20 Q1020
Loading
Personal Weather Stations






























Interactive Weather Map New forecast layout! Learn more

10-Day Weather Forecast

Advertisements
Track Severe Weather on mobile